createdAt,value
2019-05-14T02:37:13.967Z,8.05
2019-05-14T02:39:44.853Z,7.15
2019-05-14T02:42:15.792Z,5.37
2019-05-14T02:44:48.951Z,5.70
2019-05-14T02:47:19.518Z,6.37
2019-05-14T02:49:50.779Z,5.97
2019-05-14T02:52:21.710Z,6.03
2019-05-14T02:54:52.561Z,5.65
2019-05-14T02:57:23.804Z,6.08
2019-05-14T02:59:54.753Z,5.97
2019-05-14T03:02:25.469Z,5.62
2019-05-14T03:04:59.217Z,7.80
2019-05-14T03:07:29.805Z,7.75
2019-05-14T03:10:00.874Z,7.97
2019-05-14T03:12:32.140Z,5.70
2019-05-14T03:15:03.873Z,5.90
2019-05-14T03:17:34.705Z,6.08
2019-05-14T03:20:09.125Z,5.15
2019-05-14T03:22:54.826Z,6.35
2019-05-14T03:25:12.585Z,6.17
2019-05-14T03:27:43.496Z,7.50
2019-05-14T03:30:14.773Z,6.58
2019-05-14T03:32:45.824Z,5.92
2019-05-14T03:35:22.563Z,7.42
2019-05-14T03:37:49.794Z,6.07
2019-05-14T03:40:20.908Z,5.45
2019-05-14T03:42:51.954Z,6.20
2019-05-14T03:45:22.900Z,7.00
2019-05-14T03:47:53.958Z,6.12
2019-05-14T03:50:24.853Z,6.58
2019-05-14T03:52:55.701Z,6.97
2019-05-14T03:55:29.290Z,6.25
2019-05-14T03:57:59.802Z,7.15
2019-05-14T04:00:33.778Z,5.85
2019-05-14T04:03:04.933Z,8.10
2019-05-14T04:05:39.862Z,6.28
2019-05-14T04:08:09.696Z,6.65
2019-05-14T04:10:49.118Z,6.72
2019-05-14T04:15:49.454Z,5.80
2019-05-14T04:18:21.766Z,6.47
2019-05-14T04:20:53.974Z,6.75
2019-05-14T04:23:28.721Z,6.50
2019-05-14T04:26:00.654Z,6.78
2019-05-14T04:28:32.897Z,6.25
2019-05-14T04:31:09.714Z,7.03
2019-05-14T04:34:00.441Z,6.78
2019-05-14T04:36:31.939Z,6.92
2019-05-14T04:39:03.092Z,6.33
2019-05-14T04:41:33.938Z,5.92
2019-05-14T04:44:05.221Z,6.47
2019-05-14T04:46:39.168Z,6.08
2019-05-14T04:49:09.623Z,6.23
2019-05-14T04:51:41.027Z,5.70
2019-05-14T04:54:12.264Z,6.40
2019-05-14T04:56:43.205Z,5.70
2019-05-14T04:59:14.415Z,5.70
2019-05-14T05:01:45.208Z,6.40
2019-05-14T05:04:16.265Z,6.83
2019-05-14T05:06:49.881Z,5.97
2019-05-14T05:09:20.159Z,6.70
2019-05-14T05:11:51.368Z,6.33
2019-05-14T05:14:23.912Z,6.75
2019-05-14T05:16:54.918Z,5.70
2019-05-14T05:19:28.816Z,6.60
2019-05-14T05:21:58.765Z,5.97
2019-05-14T05:24:29.746Z,5.58
2019-05-14T05:27:00.987Z,9.95
2019-05-14T05:29:31.996Z,6.08
2019-05-14T05:32:02.895Z,5.78
2019-05-14T05:34:34.087Z,5.92
2019-05-14T05:37:04.868Z,5.60
2019-05-14T05:39:38.379Z,5.50
2019-05-14T05:42:09.198Z,7.58
2019-05-14T05:44:40.618Z,7.75
2019-05-14T05:47:11.404Z,6.22
2019-05-14T05:49:42.493Z,6.20
2019-05-14T05:52:13.316Z,5.70
2019-05-14T05:54:44.139Z,6.03
2019-05-14T05:57:15.489Z,6.90
2019-05-14T05:59:48.529Z,5.85
2019-05-14T06:02:18.851Z,6.58
2019-05-14T06:04:51.917Z,7.65
2019-05-14T06:07:22.890Z,7.10
2019-05-14T06:09:54.008Z,6.75
2019-05-14T06:12:25.006Z,6.92
2019-05-14T06:14:57.816Z,6.75
2019-05-14T06:17:28.565Z,19.30
2019-05-14T06:20:00.073Z,7.90
2019-05-14T06:22:30.837Z,7.03
2019-05-14T06:25:01.949Z,8.03
2019-05-14T06:27:33.277Z,6.05
2019-05-14T06:30:04.220Z,7.12
2019-05-14T06:32:34.963Z,6.78
2019-05-14T06:35:08.803Z,6.72
2019-05-14T06:37:40.114Z,8.08
2019-05-14T06:40:11.724Z,7.37
2019-05-14T06:42:42.494Z,6.50
2019-05-14T06:45:13.580Z,6.67
2019-05-14T06:47:44.471Z,5.87
2019-05-14T06:50:15.973Z,5.83
2019-05-14T06:52:49.497Z,5.62
2019-05-14T06:55:20.595Z,6.30
2019-05-14T06:57:52.474Z,7.58
2019-05-14T07:00:24.287Z,6.55
2019-05-14T07:02:55.321Z,5.60
2019-05-14T07:05:28.071Z,5.55
2019-05-14T07:07:59.695Z,5.25
2019-05-14T07:10:30.943Z,6.40
2019-05-14T07:13:02.125Z,6.15
2019-05-14T07:15:33.175Z,5.60
2019-05-14T07:18:04.140Z,6.03
2019-05-14T07:20:35.049Z,6.22
2019-05-14T07:23:08.234Z,5.65
2019-05-14T07:25:39.388Z,5.83
2019-05-14T07:28:10.256Z,5.17
2019-05-14T07:30:41.522Z,5.83
2019-05-14T07:33:12.374Z,4.62
2019-05-14T07:35:43.218Z,5.55
2019-05-14T07:38:14.319Z,5.30
2019-05-14T07:40:45.453Z,6.65
2019-05-14T07:43:18.748Z,5.90
2019-05-14T07:45:49.216Z,5.43
2019-05-14T07:48:20.310Z,6.95
2019-05-14T07:50:52.094Z,5.72
2019-05-14T07:53:35.131Z,6.12
2019-05-14T07:55:55.904Z,5.72
2019-05-14T07:58:28.232Z,5.67
2019-05-14T08:00:59.658Z,5.50
2019-05-14T08:03:30.501Z,5.60
2019-05-14T08:06:01.670Z,5.62
2019-05-14T08:08:33.037Z,5.15
2019-05-14T08:11:03.985Z,9.23
2019-05-14T08:13:34.857Z,5.95
2019-05-14T08:16:05.788Z,6.78
2019-05-14T08:18:39.323Z,6.50
2019-05-14T08:21:08.927Z,13.70
2019-05-14T08:23:40.116Z,6.15
2019-05-14T08:26:11.182Z,6.12
2019-05-14T08:28:42.196Z,5.78
2019-05-14T08:31:13.119Z,6.28
2019-05-14T08:33:43.978Z,7.83
2019-05-14T08:36:14.896Z,5.85
2019-05-14T08:38:46.564Z,5.33
2019-05-14T08:41:19.854Z,5.80
2019-05-14T08:43:50.629Z,6.40
2019-05-14T08:46:21.512Z,5.95
2019-05-14T08:48:52.599Z,5.65
2019-05-14T08:51:23.424Z,5.87
2019-05-14T08:53:54.083Z,6.70
2019-05-14T08:56:25.060Z,6.22
2019-05-14T08:58:56.395Z,5.42
2019-05-14T09:01:29.256Z,6.47
2019-05-14T09:04:00.145Z,8.10
2019-05-14T09:06:30.882Z,5.50
2019-05-14T09:09:01.954Z,5.47
2019-05-14T09:11:35.584Z,5.80
2019-05-14T09:14:05.074Z,5.95
2019-05-14T09:16:42.735Z,6.15
2019-05-14T09:19:08.803Z,5.67
2019-05-14T09:21:39.930Z,5.55
2019-05-14T09:24:11.651Z,6.30
2019-05-14T09:26:42.523Z,6.72
2019-05-14T09:29:22.494Z,6.60
2019-05-14T09:31:48.891Z,6.97
2019-05-14T09:34:19.743Z,6.20
2019-05-14T09:36:50.687Z,6.70
2019-05-14T09:39:21.921Z,6.55
2019-05-14T09:41:52.932Z,6.97
2019-05-14T09:44:23.748Z,6.03
2019-05-14T09:46:54.639Z,6.40
2019-05-14T09:49:28.093Z,6.45
2019-05-14T09:51:58.295Z,6.17
2019-05-14T09:54:29.573Z,7.05
2019-05-14T09:57:00.527Z,7.05
2019-05-14T09:59:31.548Z,6.30
2019-05-14T10:02:02.637Z,5.75
2019-05-14T10:04:33.551Z,6.20
2019-05-14T10:07:04.493Z,5.67
2019-05-14T10:09:38.632Z,5.83
2019-05-14T10:12:08.925Z,5.37
2019-05-14T10:14:40.352Z,5.05
2019-05-14T10:17:11.229Z,5.92
2019-05-14T10:19:41.940Z,6.03
2019-05-14T10:22:13.046Z,6.03
2019-05-14T10:24:43.884Z,5.83
2019-05-14T10:27:14.819Z,5.10
2019-05-14T10:29:48.170Z,5.20
2019-05-14T10:32:18.687Z,6.53
2019-05-14T10:34:50.153Z,6.70
2019-05-14T10:37:20.932Z,8.05
2019-05-14T10:39:51.786Z,5.28
2019-05-14T10:42:22.843Z,5.17
2019-05-14T10:44:53.761Z,5.92
2019-05-14T10:47:24.663Z,6.15
2019-05-14T10:49:58.273Z,6.55
2019-05-14T10:52:28.832Z,5.67
2019-05-14T10:54:59.739Z,5.70
2019-05-14T10:57:31.015Z,6.30
2019-05-14T11:00:01.850Z,5.20
2019-05-14T11:02:32.552Z,7.25
2019-05-14T11:05:03.679Z,9.25
2019-05-14T11:07:34.624Z,5.50
2019-05-14T11:10:09.017Z,7.25
2019-05-14T11:12:39.732Z,6.10
2019-05-14T11:15:11.412Z,6.03
2019-05-14T11:17:42.306Z,6.05
2019-05-14T11:20:13.756Z,6.65
2019-05-14T11:22:44.887Z,5.45
2019-05-14T11:25:16.531Z,6.50
2019-05-14T11:27:49.283Z,5.05
2019-05-14T11:30:20.325Z,7.30
2019-05-14T11:32:51.402Z,4.78
2019-05-14T11:35:22.542Z,5.17
2019-05-14T11:37:53.444Z,4.95
2019-05-14T11:40:24.111Z,5.10
2019-05-14T11:42:55.440Z,7.53
2019-05-14T11:45:26.754Z,5.92
2019-05-14T11:47:58.350Z,5.20
2019-05-14T11:50:29.842Z,6.85
2019-05-14T11:53:00.641Z,5.62
2019-05-14T11:55:31.642Z,5.97
2019-05-14T11:58:02.738Z,5.58
2019-05-14T12:00:34.020Z,5.85
2019-05-14T12:03:05.104Z,5.40
2019-05-14T12:05:38.683Z,5.75
2019-05-14T12:08:09.504Z,4.67
2019-05-14T12:10:40.468Z,9.00
2019-05-14T12:13:11.733Z,5.78
2019-05-14T12:15:42.709Z,6.20
2019-05-14T12:18:13.643Z,5.65
2019-05-14T12:20:44.875Z,5.20
2019-05-14T12:23:15.683Z,5.45
2019-05-14T12:25:49.141Z,4.83
2019-05-14T12:28:19.681Z,7.67
2019-05-14T12:30:50.732Z,5.53
2019-05-14T12:33:21.448Z,8.48
2019-05-14T12:35:52.815Z,6.72
2019-05-14T12:38:23.741Z,5.72
2019-05-14T12:40:54.652Z,6.25
2019-05-14T12:43:27.985Z,6.53
2019-05-14T12:45:59.257Z,6.67
2019-05-14T12:48:30.408Z,6.12
2019-05-14T12:51:01.491Z,6.20
2019-05-14T12:53:32.818Z,7.12
2019-05-14T12:56:03.774Z,5.50
2019-05-14T12:58:34.659Z,5.78
2019-05-14T13:01:05.570Z,5.45
2019-05-14T13:03:36.526Z,5.08
2019-05-14T13:06:10.139Z,4.60
2019-05-14T13:08:39.741Z,4.67
2019-05-14T13:11:10.711Z,3.90
2019-05-14T13:13:42.863Z,3.83
2019-05-14T13:16:13.967Z,4.15
2019-05-14T13:18:44.751Z,3.83
2019-05-14T13:21:15.955Z,4.53
2019-05-14T13:23:48.628Z,4.33
2019-05-14T13:26:19.478Z,4.20
2019-05-14T13:28:51.067Z,4.35
2019-05-14T13:31:22.150Z,4.10
2019-05-14T13:33:53.249Z,3.42
2019-05-14T13:36:24.156Z,3.80
2019-05-14T13:38:55.085Z,3.72
2019-05-14T13:41:28.326Z,4.97
2019-05-14T13:43:58.762Z,4.40
2019-05-14T13:46:30.043Z,4.80
2019-05-14T13:49:01.101Z,4.80
2019-05-14T13:51:33.733Z,4.47
2019-05-14T13:54:05.175Z,5.70
2019-05-14T13:56:36.108Z,4.72
2019-05-14T13:59:09.516Z,5.62
2019-05-14T14:01:39.785Z,5.45
2019-05-14T14:04:14.769Z,5.92
2019-05-14T14:06:44.367Z,4.92
2019-05-14T14:09:16.690Z,6.28
2019-05-14T14:11:48.267Z,5.83
2019-05-14T14:14:20.087Z,5.92
2019-05-14T14:16:51.600Z,6.10
2019-05-14T14:19:22.246Z,6.28
2019-05-14T14:21:53.159Z,5.78
2019-05-14T14:24:24.251Z,6.42
2019-05-14T14:26:55.183Z,5.92
2019-05-14T14:29:28.518Z,5.95
2019-05-14T14:31:59.105Z,5.87
2019-05-14T14:34:30.167Z,7.00
2019-05-14T14:37:00.779Z,6.67
2019-05-14T14:39:32.567Z,6.55
2019-05-14T14:42:05.074Z,6.70
2019-05-14T14:44:35.943Z,6.72
2019-05-14T14:47:08.055Z,7.05
2019-05-14T14:49:43.404Z,6.62
2019-05-14T14:52:12.310Z,5.87
2019-05-14T14:54:43.367Z,5.55
2019-05-14T14:57:14.745Z,6.83
2019-05-14T14:59:48.567Z,6.22
2019-05-14T15:02:19.769Z,5.25
2019-05-14T15:04:50.970Z,5.42
2019-05-14T15:07:21.809Z,5.85
2019-05-14T15:09:52.913Z,5.40
2019-05-14T15:12:23.800Z,6.25
2019-05-14T15:14:54.791Z,6.65
2019-05-14T15:17:25.948Z,6.10
2019-05-14T15:19:59.236Z,5.72
2019-05-14T15:22:31.052Z,5.72
2019-05-14T15:25:01.432Z,5.22
2019-05-14T15:27:32.341Z,6.42
2019-05-14T15:30:03.275Z,6.05
2019-05-14T15:32:34.240Z,6.22
2019-05-14T15:35:10.219Z,6.03
2019-05-14T15:37:42.184Z,6.15
2019-05-14T15:40:11.409Z,5.37
2019-05-14T15:42:44.800Z,5.75
2019-05-14T15:45:18.030Z,5.92
2019-05-14T15:47:48.702Z,6.40
2019-05-14T15:50:20.157Z,6.25
2019-05-14T15:52:51.406Z,6.33
2019-05-14T15:55:22.502Z,6.85
2019-05-14T15:57:53.352Z,6.72
2019-05-14T16:00:24.587Z,6.92
2019-05-14T16:03:00.279Z,6.67
2019-05-14T16:05:29.609Z,7.35
2019-05-14T16:08:00.728Z,6.37
2019-05-14T16:10:33.413Z,6.00
2019-05-14T16:13:03.786Z,5.30
2019-05-14T16:15:35.177Z,6.08
2019-05-14T16:18:14.766Z,6.17
2019-05-14T16:20:39.265Z,6.08
2019-05-14T16:23:11.012Z,6.35
2019-05-14T16:25:42.144Z,5.97
2019-05-14T16:28:13.153Z,5.50
2019-05-14T16:30:44.454Z,5.65
2019-05-14T16:33:15.211Z,5.37
2019-05-14T16:35:48.395Z,5.05
2019-05-14T16:38:18.538Z,5.65
2019-05-14T16:40:49.313Z,5.62
2019-05-14T16:43:20.283Z,5.05
2019-05-14T16:45:51.163Z,5.85
2019-05-14T16:48:21.874Z,6.42
2019-05-14T16:50:53.551Z,5.35
2019-05-14T16:53:24.684Z,5.90
2019-05-14T16:55:55.434Z,5.50
2019-05-14T16:58:29.022Z,5.83
2019-05-14T17:00:59.115Z,5.60
2019-05-14T17:03:30.475Z,4.90
2019-05-14T17:06:01.513Z,6.33
2019-05-14T17:08:32.389Z,6.17
2019-05-14T17:11:03.543Z,6.50
2019-05-14T17:13:34.424Z,6.95
2019-05-14T17:16:05.266Z,7.15
2019-05-14T17:18:36.020Z,7.22
2019-05-14T17:21:09.361Z,7.30
2019-05-14T17:23:40.565Z,7.70
2019-05-14T17:26:11.759Z,7.45
2019-05-14T17:28:42.657Z,6.58
2019-05-14T17:31:13.694Z,7.28
2019-05-14T17:33:44.807Z,6.83
2019-05-14T17:36:15.733Z,6.78
2019-05-14T17:38:48.922Z,6.40
2019-05-14T17:41:19.450Z,7.83
2019-05-14T17:43:50.782Z,6.33
2019-05-14T17:46:22.613Z,6.75
2019-05-14T17:48:53.880Z,6.83
2019-05-14T17:51:24.931Z,7.10
2019-05-14T17:53:55.753Z,6.75
2019-05-14T17:56:28.397Z,6.62
2019-05-14T17:58:59.363Z,7.67
2019-05-14T18:01:30.471Z,6.83
2019-05-14T18:04:01.323Z,7.30
2019-05-14T18:06:32.288Z,7.22
2019-05-14T18:09:03.898Z,7.15
2019-05-14T18:11:34.864Z,7.40
2019-05-14T18:14:11.623Z,7.65
2019-05-14T18:16:38.093Z,8.40
2019-05-14T18:19:09.132Z,8.43
2019-05-14T18:21:40.794Z,8.60
2019-05-14T18:24:11.832Z,7.97
2019-05-14T18:26:42.899Z,9.00
2019-05-14T18:29:13.568Z,8.70
2019-05-14T18:31:45.607Z,9.15
2019-05-14T18:34:18.816Z,9.18
2019-05-14T18:36:49.272Z,8.95
2019-05-14T18:39:20.914Z,9.28
2019-05-14T18:41:52.322Z,8.35
2019-05-14T18:44:23.410Z,10.10
2019-05-14T18:46:55.198Z,10.72
2019-05-14T18:49:28.633Z,12.13
2019-05-14T18:51:59.323Z,11.08
2019-05-14T18:54:30.505Z,10.55
2019-05-14T18:57:01.522Z,10.28
2019-05-14T18:59:32.334Z,11.10
2019-05-14T19:02:03.397Z,9.75
2019-05-14T19:04:34.314Z,9.70
2019-05-14T19:07:05.195Z,11.05
2019-05-14T19:09:38.784Z,9.58
2019-05-14T19:12:08.478Z,11.33
2019-05-14T19:14:39.736Z,10.35
2019-05-14T19:17:11.373Z,11.80
2019-05-14T19:19:42.468Z,11.05
2019-05-14T19:22:13.678Z,11.20
2019-05-14T19:24:44.518Z,12.00
2019-05-14T19:27:15.716Z,12.50
2019-05-14T19:29:48.454Z,11.30
2019-05-14T19:32:19.320Z,11.20
2019-05-14T19:34:50.266Z,12.70
2019-05-14T19:37:21.333Z,12.33
2019-05-14T19:39:52.218Z,11.83
2019-05-14T19:42:23.056Z,12.85
2019-05-14T19:44:54.464Z,14.83
2019-05-14T19:47:25.469Z,15.63
2019-05-14T19:49:58.088Z,16.70
2019-05-14T19:52:28.521Z,15.40
2019-05-14T19:54:59.553Z,13.70
2019-05-14T19:57:30.396Z,14.43
2019-05-14T20:00:01.277Z,15.03
2019-05-14T20:02:32.512Z,14.13
2019-05-14T20:05:05.473Z,14.83
2019-05-14T20:07:38.363Z,14.05
2019-05-14T20:10:09.249Z,14.50
2019-05-14T20:12:40.627Z,15.58
2019-05-14T20:15:12.029Z,15.70
2019-05-14T20:17:42.989Z,15.90
2019-05-14T20:20:14.374Z,15.50
2019-05-14T20:22:45.259Z,15.20
2019-05-14T20:25:16.587Z,15.38
2019-05-14T20:27:48.014Z,15.95
2019-05-14T20:30:20.156Z,15.15
2019-05-14T20:32:51.098Z,16.07
2019-05-14T20:35:31.564Z,17.05
2019-05-14T20:37:54.492Z,17.20
2019-05-14T20:40:25.496Z,17.15
2019-05-14T20:42:58.602Z,16.95
2019-05-14T20:45:29.056Z,17.92
2019-05-14T20:48:00.279Z,17.35
2019-05-14T20:50:31.224Z,18.80
2019-05-14T20:53:02.229Z,16.57
2019-05-14T20:55:33.326Z,17.00
2019-05-14T20:58:04.204Z,17.55
2019-05-14T21:00:34.985Z,17.48
2019-05-14T21:03:08.761Z,17.32
2019-05-14T21:05:38.924Z,17.62
2019-05-14T21:08:13.448Z,19.02
2019-05-14T21:10:42.684Z,18.25
2019-05-14T21:13:13.826Z,20.88
2019-05-14T21:15:44.881Z,20.48
2019-05-14T21:18:15.819Z,18.98
2019-05-14T21:20:48.804Z,21.37
2019-05-14T21:23:19.691Z,21.95
2019-05-14T21:25:50.425Z,21.33
2019-05-14T21:28:21.616Z,21.60
2019-05-14T21:30:52.483Z,21.07
2019-05-14T21:33:23.428Z,22.10
2019-05-14T21:35:54.459Z,23.40
2019-05-14T21:38:25.503Z,23.98
2019-05-14T21:40:58.162Z,21.33
2019-05-14T21:43:29.063Z,23.32
2019-05-14T21:46:00.061Z,21.35
2019-05-14T21:48:30.882Z,23.10
2019-05-14T21:51:01.708Z,19.92
2019-05-14T21:53:32.583Z,22.42
2019-05-14T21:56:03.617Z,20.77
2019-05-14T21:58:34.916Z,21.65
2019-05-14T22:01:07.974Z,21.05
2019-05-14T22:03:40.219Z,21.95
2019-05-14T22:06:11.701Z,22.50
2019-05-14T22:08:42.632Z,21.75
2019-05-14T22:11:13.389Z,21.50
2019-05-14T22:13:44.333Z,21.00
2019-05-14T22:16:15.746Z,21.57
2019-05-14T22:18:48.310Z,20.20
2019-05-14T22:21:18.858Z,21.68
2019-05-14T22:23:49.714Z,21.90
2019-05-14T22:26:20.511Z,22.50
2019-05-14T22:28:51.394Z,23.57
2019-05-14T22:31:22.291Z,24.12
2019-05-14T22:33:53.296Z,23.30
2019-05-14T22:36:29.070Z,23.12
2019-05-14T22:38:58.718Z,23.25
2019-05-14T22:41:29.976Z,24.00
2019-05-14T22:44:00.837Z,25.08
2019-05-14T22:46:34.123Z,23.85
2019-05-14T22:49:05.006Z,23.07
2019-05-14T22:51:38.392Z,24.10
2019-05-14T22:54:08.879Z,23.83
2019-05-14T22:56:39.988Z,31.97
2019-05-14T22:59:10.940Z,26.25
2019-05-14T23:01:41.862Z,25.82
2019-05-14T23:04:12.851Z,23.47
2019-05-14T23:06:43.587Z,26.07
2019-05-14T23:09:16.367Z,23.65
2019-05-14T23:11:48.042Z,24.45
2019-05-14T23:14:19.274Z,24.55
2019-05-14T23:16:50.506Z,25.30
2019-05-14T23:19:21.290Z,24.95
2019-05-14T23:21:52.341Z,26.57
2019-05-14T23:24:23.506Z,25.88
2019-05-14T23:26:54.499Z,25.95
2019-05-14T23:29:25.607Z,25.02
2019-05-14T23:31:58.656Z,26.45
2019-05-14T23:34:28.925Z,25.10
2019-05-14T23:37:00.570Z,25.77
2019-05-14T23:39:31.763Z,26.42
2019-05-14T23:42:03.156Z,25.25
2019-05-14T23:44:33.735Z,26.27
2019-05-14T23:47:04.526Z,26.07
2019-05-14T23:49:35.551Z,23.80
2019-05-14T23:52:06.436Z,23.83
2019-05-14T23:54:38.591Z,25.08
2019-05-14T23:57:09.512Z,23.98
2019-05-14T23:59:40.711Z,24.07
